sensor_id;sensor_type;location;lat;lon;timestamp;pressure;altitude;pressure_sealevel;temperature;humidity
47811;BME280;33575;52.600;7.318;2023-05-12T00:00:07;101449.52;;;13.19;100.00
47811;BME280;33575;52.600;7.318;2023-05-12T00:02:37;101451.02;;;13.27;100.00
47811;BME280;33575;52.600;7.318;2023-05-12T00:05:08;101450.95;;;13.33;100.00
47811;BME280;33575;52.600;7.318;2023-05-12T00:07:38;101448.94;;;13.35;100.00
47811;BME280;33575;52.600;7.318;2023-05-12T00:10:09;101446.51;;;13.30;100.00
47811;BME280;33575;52.600;7.318;2023-05-12T00:12:39;101446.58;;;13.28;100.00
47811;BME280;33575;52.600;7.318;2023-05-12T00:15:09;101449.62;;;13.27;100.00
47811;BME280;33575;52.600;7.318;2023-05-12T00:17:40;101452.67;;;13.25;100.00
47811;BME280;33575;52.600;7.318;2023-05-12T00:20:11;101454.67;;;13.35;100.00
47811;BME280;33575;52.600;7.318;2023-05-12T00:22:40;101456.74;;;13.45;100.00
47811;BME280;33575;52.600;7.318;2023-05-12T00:25:11;101456.73;;;13.50;100.00
47811;BME280;33575;52.600;7.318;2023-05-12T00:27:41;101458.21;;;13.57;100.00
47811;BME280;33575;52.600;7.318;2023-05-12T00:30:12;101456.01;;;13.60;100.00
47811;BME280;33575;52.600;7.318;2023-05-12T00:32:42;101454.57;;;13.58;100.00
47811;BME280;33575;52.600;7.318;2023-05-12T00:35:12;101453.43;;;13.51;100.00
47811;BME280;33575;52.600;7.318;2023-05-12T00:37:42;101456.98;;;13.54;100.00
47811;BME280;33575;52.600;7.318;2023-05-12T00:40:12;101452.29;;;13.55;100.00
47811;BME280;33575;52.600;7.318;2023-05-12T00:42:43;101452.46;;;13.50;100.00
47811;BME280;33575;52.600;7.318;2023-05-12T00:45:14;101454.09;;;13.49;100.00
47811;BME280;33575;52.600;7.318;2023-05-12T00:47:44;101453.77;;;13.44;100.00
47811;BME280;33575;52.600;7.318;2023-05-12T00:50:15;101455.39;;;13.38;100.00
47811;BME280;33575;52.600;7.318;2023-05-12T00:52:45;101454.29;;;13.42;100.00
47811;BME280;33575;52.600;7.318;2023-05-12T00:55:16;101450.55;;;13.41;100.00
47811;BME280;33575;52.600;7.318;2023-05-12T00:57:46;101449.80;;;13.42;100.00
47811;BME280;33575;52.600;7.318;2023-05-12T01:00:16;101455.46;;;13.48;100.00
47811;BME280;33575;52.600;7.318;2023-05-12T01:02:47;101456.33;;;13.45;100.00
47811;BME280;33575;52.600;7.318;2023-05-12T01:05:17;101452.88;;;13.45;100.00
47811;BME280;33575;52.600;7.318;2023-05-12T01:07:47;101448.70;;;13.44;100.00
47811;BME280;33575;52.600;7.318;2023-05-12T01:10:18;101444.31;;;13.47;100.00
47811;BME280;33575;52.600;7.318;2023-05-12T01:12:48;101441.42;;;13.48;100.00
47811;BME280;33575;52.600;7.318;2023-05-12T01:15:18;101438.11;;;13.44;100.00
47811;BME280;33575;52.600;7.318;2023-05-12T01:17:54;101439.62;;;13.40;100.00
47811;BME280;33575;52.600;7.318;2023-05-12T01:20:22;101443.23;;;13.46;100.00
47811;BME280;33575;52.600;7.318;2023-05-12T01:22:50;101446.08;;;13.54;100.00
47811;BME280;33575;52.600;7.318;2023-05-12T01:25:22;101451.84;;;13.50;100.00
47811;BME280;33575;52.600;7.318;2023-05-12T01:27:51;101453.34;;;13.38;100.00
47811;BME280;33575;52.600;7.318;2023-05-12T01:30:22;101456.15;;;13.30;100.00
47811;BME280;33575;52.600;7.318;2023-05-12T01:32:51;101459.50;;;13.30;100.00
47811;BME280;33575;52.600;7.318;2023-05-12T01:35:21;101466.80;;;13.29;100.00
47811;BME280;33575;52.600;7.318;2023-05-12T01:37:52;101470.95;;;13.28;100.00
47811;BME280;33575;52.600;7.318;2023-05-12T01:40:23;101467.91;;;13.37;100.00
47811;BME280;33575;52.600;7.318;2023-05-12T01:42:53;101472.91;;;13.45;100.00
47811;BME280;33575;52.600;7.318;2023-05-12T01:45:23;101473.70;;;13.45;100.00
47811;BME280;33575;52.600;7.318;2023-05-12T01:47:53;101470.84;;;13.56;100.00
47811;BME280;33575;52.600;7.318;2023-05-12T01:50:23;101470.05;;;13.58;100.00
47811;BME280;33575;52.600;7.318;2023-05-12T01:52:53;101465.79;;;13.58;100.00
47811;BME280;33575;52.600;7.318;2023-05-12T01:55:24;101461.43;;;13.63;100.00
47811;BME280;33575;52.600;7.318;2023-05-12T01:57:54;101461.06;;;13.70;100.00
47811;BME280;33575;52.600;7.318;2023-05-12T02:00:25;101460.58;;;13.76;100.00
47811;BME280;33575;52.600;7.318;2023-05-12T02:02:55;101460.75;;;13.83;100.00
47811;BME280;33575;52.600;7.318;2023-05-12T02:05:26;101461.82;;;13.88;100.00
47811;BME280;33575;52.600;7.318;2023-05-12T02:07:56;101459.61;;;13.90;100.00
47811;BME280;33575;52.600;7.318;2023-05-12T02:10:27;101466.35;;;13.98;100.00
47811;BME280;33575;52.600;7.318;2023-05-12T02:12:57;101467.74;;;14.04;100.00
47811;BME280;33575;52.600;7.318;2023-05-12T02:15:28;101469.11;;;14.06;99.73
47811;BME280;33575;52.600;7.318;2023-05-12T02:17:58;101462.99;;;13.99;99.45
47811;BME280;33575;52.600;7.318;2023-05-12T02:20:28;101469.71;;;13.98;99.90
47811;BME280;33575;52.600;7.318;2023-05-12T02:22:59;101468.21;;;13.97;99.67
47811;BME280;33575;52.600;7.318;2023-05-12T02:25:29;101470.85;;;13.97;99.45
47811;BME280;33575;52.600;7.318;2023-05-12T02:28:00;101471.96;;;13.93;99.43
47811;BME280;33575;52.600;7.318;2023-05-12T02:30:30;101472.12;;;13.83;99.87
47811;BME280;33575;52.600;7.318;2023-05-12T02:33:01;101471.88;;;13.77;100.00
47811;BME280;33575;52.600;7.318;2023-05-12T02:35:31;101472.76;;;13.78;99.92
47811;BME280;33575;52.600;7.318;2023-05-12T02:38:01;101476.91;;;13.82;99.78
47811;BME280;33575;52.600;7.318;2023-05-12T02:40:32;101476.83;;;13.82;99.60
47811;BME280;33575;52.600;7.318;2023-05-12T02:43:02;101474.06;;;13.83;99.39
47811;BME280;33575;52.600;7.318;2023-05-12T02:45:34;101472.76;;;13.78;99.92
47811;BME280;33575;52.600;7.318;2023-05-12T02:48:03;101473.61;;;13.79;99.71
47811;BME280;33575;52.600;7.318;2023-05-12T02:50:33;101474.68;;;13.83;99.77
47811;BME280;33575;52.600;7.318;2023-05-12T02:53:03;101476.62;;;13.91;99.59
47811;BME280;33575;52.600;7.318;2023-05-12T02:55:34;101477.38;;;13.97;99.38
47811;BME280;33575;52.600;7.318;2023-05-12T02:58:05;101477.10;;;13.98;99.43
47811;BME280;33575;52.600;7.318;2023-05-12T03:00:35;101477.63;;;13.98;99.74
47811;BME280;33575;52.600;7.318;2023-05-12T03:03:06;101477.29;;;13.97;99.83
47811;BME280;33575;52.600;7.318;2023-05-12T03:05:37;101474.52;;;13.88;100.00
47811;BME280;33575;52.600;7.318;2023-05-12T03:08:07;101473.76;;;13.91;100.00
47811;BME280;33575;52.600;7.318;2023-05-12T03:10:38;101474.76;;;13.93;100.00
47811;BME280;33575;52.600;7.318;2023-05-12T03:13:08;101476.56;;;13.91;100.00
47811;BME280;33575;52.600;7.318;2023-05-12T03:15:39;101472.34;;;13.92;100.00
47811;BME280;33575;52.600;7.318;2023-05-12T03:18:09;101471.40;;;13.87;100.00
47811;BME280;33575;52.600;7.318;2023-05-12T03:20:40;101475.96;;;13.86;100.00
47811;BME280;33575;52.600;7.318;2023-05-12T03:23:10;101471.84;;;13.83;100.00
47811;BME280;33575;52.600;7.318;2023-05-12T03:25:40;101470.33;;;13.70;100.00
47811;BME280;33575;52.600;7.318;2023-05-12T03:28:10;101471.87;;;13.78;100.00
47811;BME280;33575;52.600;7.318;2023-05-12T03:30:40;101472.20;;;13.75;100.00
47811;BME280;33575;52.600;7.318;2023-05-12T03:33:11;101471.12;;;13.72;100.00
47811;BME280;33575;52.600;7.318;2023-05-12T03:35:41;101473.08;;;13.76;100.00
47811;BME280;33575;52.600;7.318;2023-05-12T03:38:12;101468.25;;;13.75;100.00
47811;BME280;33575;52.600;7.318;2023-05-12T03:40:42;101468.51;;;13.74;100.00
47811;BME280;33575;52.600;7.318;2023-05-12T03:43:12;101473.57;;;13.78;100.00
47811;BME280;33575;52.600;7.318;2023-05-12T03:45:43;101479.02;;;13.81;100.00
47811;BME280;33575;52.600;7.318;2023-05-12T03:48:13;101480.49;;;13.79;100.00
47811;BME280;33575;52.600;7.318;2023-05-12T03:50:44;101484.21;;;13.77;100.00
47811;BME280;33575;52.600;7.318;2023-05-12T03:53:14;101480.62;;;13.78;100.00
47811;BME280;33575;52.600;7.318;2023-05-12T03:55:45;101490.71;;;13.80;100.00
47811;BME280;33575;52.600;7.318;2023-05-12T03:58:15;101490.38;;;13.83;100.00
47811;BME280;33575;52.600;7.318;2023-05-12T04:00:46;101485.69;;;13.77;100.00
47811;BME280;33575;52.600;7.318;2023-05-12T04:03:17;101489.57;;;13.83;100.00
47811;BME280;33575;52.600;7.318;2023-05-12T04:05:47;101490.90;;;13.84;100.00
47811;BME280;33575;52.600;7.318;2023-05-12T04:08:17;101495.94;;;13.84;100.00
47811;BME280;33575;52.600;7.318;2023-05-12T04:10:48;101493.02;;;13.86;100.00
47811;BME280;33575;52.600;7.318;2023-05-12T04:13:18;101493.73;;;13.81;100.00
47811;BME280;33575;52.600;7.318;2023-05-12T04:15:48;101497.04;;;13.86;100.00
47811;BME280;33575;52.600;7.318;2023-05-12T04:18:19;101499.78;;;13.90;100.00
47811;BME280;33575;52.600;7.318;2023-05-12T04:20:49;101501.08;;;13.95;100.00
47811;BME280;33575;52.600;7.318;2023-05-12T04:23:20;101501.30;;;13.93;100.00
47811;BME280;33575;52.600;7.318;2023-05-12T04:25:50;101503.04;;;13.97;100.00
47811;BME280;33575;52.600;7.318;2023-05-12T04:28:21;101506.19;;;14.00;100.00
47811;BME280;33575;52.600;7.318;2023-05-12T04:30:51;101508.91;;;14.02;100.00
47811;BME280;33575;52.600;7.318;2023-05-12T04:33:22;101511.75;;;14.06;100.00
47811;BME280;33575;52.600;7.318;2023-05-12T04:35:54;101512.58;;;14.08;100.00
47811;BME280;33575;52.600;7.318;2023-05-12T04:38:22;101518.59;;;14.13;100.00
47811;BME280;33575;52.600;7.318;2023-05-12T04:40:56;101518.88;;;14.19;100.00
47811;BME280;33575;52.600;7.318;2023-05-12T04:43:26;101525.82;;;14.22;99.98
47811;BME280;33575;52.600;7.318;2023-05-12T04:45:53;101524.03;;;14.27;99.94
47811;BME280;33575;52.600;7.318;2023-05-12T04:48:24;101524.25;;;14.32;99.72
47811;BME280;33575;52.600;7.318;2023-05-12T04:50:54;101524.98;;;14.37;99.62
47811;BME280;33575;52.600;7.318;2023-05-12T04:53:25;101534.94;;;14.44;99.53
47811;BME280;33575;52.600;7.318;2023-05-12T04:55:56;101536.23;;;14.51;99.28
47811;BME280;33575;52.600;7.318;2023-05-12T04:58:26;101540.44;;;14.51;98.76
47811;BME280;33575;52.600;7.318;2023-05-12T05:00:57;101547.01;;;14.52;99.10
47811;BME280;33575;52.600;7.318;2023-05-12T05:03:27;101550.91;;;14.54;99.07
47811;BME280;33575;52.600;7.318;2023-05-12T05:05:57;101549.80;;;14.60;99.00
47811;BME280;33575;52.600;7.318;2023-05-12T05:08:27;101550.87;;;14.63;98.75
47811;BME280;33575;52.600;7.318;2023-05-12T05:10:58;101557.01;;;14.62;98.77
47811;BME280;33575;52.600;7.318;2023-05-12T05:13:29;101557.24;;;14.66;98.69
47811;BME280;33575;52.600;7.318;2023-05-12T05:16:00;101556.59;;;14.70;98.64
47811;BME280;33575;52.600;7.318;2023-05-12T05:18:30;101559.83;;;14.74;98.56
47811;BME280;33575;52.600;7.318;2023-05-12T05:21:00;101562.60;;;14.75;98.53
47811;BME280;33575;52.600;7.318;2023-05-12T05:23:30;101565.71;;;14.79;98.40
47811;BME280;33575;52.600;7.318;2023-05-12T05:26:01;101563.37;;;14.82;98.25
47811;BME280;33575;52.600;7.318;2023-05-12T05:28:32;101568.55;;;14.86;98.16
47811;BME280;33575;52.600;7.318;2023-05-12T05:31:03;101576.14;;;14.89;98.13
47811;BME280;33575;52.600;7.318;2023-05-12T05:33:33;101579.80;;;14.91;98.19
47811;BME280;33575;52.600;7.318;2023-05-12T05:36:04;101582.15;;;14.94;98.02
47811;BME280;33575;52.600;7.318;2023-05-12T05:38:34;101583.83;;;14.98;97.96
47811;BME280;33575;52.600;7.318;2023-05-12T05:41:05;101587.35;;;14.99;97.50
47811;BME280;33575;52.600;7.318;2023-05-12T05:43:35;101588.93;;;15.01;97.69
47811;BME280;33575;52.600;7.318;2023-05-12T05:46:06;101590.61;;;15.05;97.67
47811;BME280;33575;52.600;7.318;2023-05-12T05:48:36;101591.78;;;15.04;97.72
47811;BME280;33575;52.600;7.318;2023-05-12T05:51:06;101592.38;;;15.04;97.73
47811;BME280;33575;52.600;7.318;2023-05-12T05:53:37;101588.49;;;15.04;97.56
47811;BME280;33575;52.600;7.318;2023-05-12T05:56:07;101593.11;;;15.06;97.46
47811;BME280;33575;52.600;7.318;2023-05-12T05:58:38;101590.28;;;14.98;97.69
47811;BME280;33575;52.600;7.318;2023-05-12T06:01:08;101597.70;;;14.93;97.94
47811;BME280;33575;52.600;7.318;2023-05-12T06:03:38;101591.07;;;14.88;97.96
47811;BME280;33575;52.600;7.318;2023-05-12T06:06:09;101594.99;;;14.85;98.31
47811;BME280;33575;52.600;7.318;2023-05-12T06:08:39;101597.35;;;14.86;98.22
47811;BME280;33575;52.600;7.318;2023-05-12T06:11:10;101600.79;;;14.90;98.32
47811;BME280;33575;52.600;7.318;2023-05-12T06:13:40;101606.74;;;14.90;98.52
47811;BME280;33575;52.600;7.318;2023-05-12T06:16:11;101608.91;;;14.94;98.45
47811;BME280;33575;52.600;7.318;2023-05-12T06:18:41;101615.86;;;14.99;98.30
47811;BME280;33575;52.600;7.318;2023-05-12T06:21:11;101619.89;;;15.00;98.21
47811;BME280;33575;52.600;7.318;2023-05-12T06:23:42;101618.88;;;15.04;98.11
47811;BME280;33575;52.600;7.318;2023-05-12T06:26:13;101620.11;;;15.06;98.06
47811;BME280;33575;52.600;7.318;2023-05-12T06:28:43;101625.19;;;15.07;98.08
47811;BME280;33575;52.600;7.318;2023-05-12T06:31:14;101630.59;;;15.06;98.09
47811;BME280;33575;52.600;7.318;2023-05-12T06:33:44;101630.93;;;15.11;98.04
47811;BME280;33575;52.600;7.318;2023-05-12T06:36:15;101631.16;;;15.16;98.04
47811;BME280;33575;52.600;7.318;2023-05-12T06:38:45;101630.64;;;15.09;98.50
47811;BME280;33575;52.600;7.318;2023-05-12T06:41:16;101631.66;;;15.05;98.52
47811;BME280;33575;52.600;7.318;2023-05-12T06:43:47;101635.15;;;15.05;98.60
47811;BME280;33575;52.600;7.318;2023-05-12T06:46:18;101630.72;;;15.00;98.54
47811;BME280;33575;52.600;7.318;2023-05-12T06:48:48;101633.81;;;15.00;98.75
47811;BME280;33575;52.600;7.318;2023-05-12T06:51:18;101637.73;;;14.90;99.55
47811;BME280;33575;52.600;7.318;2023-05-12T06:53:48;101642.72;;;14.89;99.52
47811;BME280;33575;52.600;7.318;2023-05-12T06:56:19;101646.71;;;14.92;99.49
47811;BME280;33575;52.600;7.318;2023-05-12T06:58:49;101648.48;;;15.00;99.29
47811;BME280;33575;52.600;7.318;2023-05-12T07:01:19;101646.03;;;14.93;99.65
47811;BME280;33575;52.600;7.318;2023-05-12T07:03:50;101651.10;;;14.86;100.00
47811;BME280;33575;52.600;7.318;2023-05-12T07:06:20;101651.84;;;14.92;100.00
47811;BME280;33575;52.600;7.318;2023-05-12T07:08:51;101650.44;;;14.83;100.00
47811;BME280;33575;52.600;7.318;2023-05-12T07:11:22;101654.37;;;14.89;100.00
47811;BME280;33575;52.600;7.318;2023-05-12T07:13:52;101655.31;;;14.95;100.00
47811;BME280;33575;52.600;7.318;2023-05-12T07:16:22;101659.23;;;15.04;100.00
47811;BME280;33575;52.600;7.318;2023-05-12T07:18:53;101665.48;;;15.04;99.57
47811;BME280;33575;52.600;7.318;2023-05-12T07:21:23;101668.61;;;15.10;99.56
47811;BME280;33575;52.600;7.318;2023-05-12T07:23:53;101663.29;;;15.17;99.34
47811;BME280;33575;52.600;7.318;2023-05-12T07:26:24;101666.42;;;15.23;99.47
47811;BME280;33575;52.600;7.318;2023-05-12T07:28:55;101662.16;;;15.25;99.15
47811;BME280;33575;52.600;7.318;2023-05-12T07:31:26;101667.47;;;15.29;99.48
47811;BME280;33575;52.600;7.318;2023-05-12T07:33:56;101673.89;;;15.36;99.47
47811;BME280;33575;52.600;7.318;2023-05-12T07:36:26;101667.47;;;15.35;99.82
47811;BME280;33575;52.600;7.318;2023-05-12T07:38:56;101675.01;;;15.37;99.44
47811;BME280;33575;52.600;7.318;2023-05-12T07:41:27;101673.23;;;15.35;99.18
47811;BME280;33575;52.600;7.318;2023-05-12T07:43:58;101674.81;;;15.28;99.25
47811;BME280;33575;52.600;7.318;2023-05-12T07:46:28;101680.54;;;15.19;99.42
47811;BME280;33575;52.600;7.318;2023-05-12T07:48:59;101676.66;;;15.22;99.68
47811;BME280;33575;52.600;7.318;2023-05-12T07:51:29;101671.16;;;15.25;99.23
47811;BME280;33575;52.600;7.318;2023-05-12T07:54:00;101670.66;;;15.22;99.16
47811;BME280;33575;52.600;7.318;2023-05-12T07:56:30;101674.63;;;15.28;99.76
47811;BME280;33575;52.600;7.318;2023-05-12T07:59:01;101675.22;;;15.32;99.05
47811;BME280;33575;52.600;7.318;2023-05-12T08:01:31;101676.34;;;15.41;98.70
47811;BME280;33575;52.600;7.318;2023-05-12T08:04:01;101675.94;;;15.53;98.97
47811;BME280;33575;52.600;7.318;2023-05-12T08:06:32;101681.87;;;15.60;98.62
47811;BME280;33575;52.600;7.318;2023-05-12T08:09:03;101685.19;;;15.60;98.61
47811;BME280;33575;52.600;7.318;2023-05-12T08:11:33;101687.96;;;15.64;98.94
47811;BME280;33575;52.600;7.318;2023-05-12T08:14:03;101689.14;;;15.67;99.09
47811;BME280;33575;52.600;7.318;2023-05-12T08:16:34;101687.91;;;15.65;98.85
47811;BME280;33575;52.600;7.318;2023-05-12T08:19:04;101689.43;;;15.73;98.95
47811;BME280;33575;52.600;7.318;2023-05-12T08:21:34;101696.69;;;15.89;98.87
47811;BME280;33575;52.600;7.318;2023-05-12T08:24:05;101694.83;;;16.03;98.23
47811;BME280;33575;52.600;7.318;2023-05-12T08:26:36;101689.22;;;16.12;96.43
47811;BME280;33575;52.600;7.318;2023-05-12T08:29:06;101700.20;;;16.21;97.44
47811;BME280;33575;52.600;7.318;2023-05-12T08:31:37;101697.79;;;16.22;95.29
47811;BME280;33575;52.600;7.318;2023-05-12T08:34:12;101693.23;;;16.22;95.72
47811;BME280;33575;52.600;7.318;2023-05-12T08:36:38;101697.05;;;16.37;97.19
47811;BME280;33575;52.600;7.318;2023-05-12T08:39:08;101705.27;;;16.52;97.61
47811;BME280;33575;52.600;7.318;2023-05-12T08:41:42;101710.07;;;16.66;97.48
47811;BME280;33575;52.600;7.318;2023-05-12T08:44:10;101710.09;;;16.77;97.22
47811;BME280;33575;52.600;7.318;2023-05-12T08:46:41;101694.89;;;16.89;96.19
47811;BME280;33575;52.600;7.318;2023-05-12T08:49:12;101687.33;;;16.77;94.49
47811;BME280;33575;52.600;7.318;2023-05-12T08:51:42;101688.00;;;16.71;94.70
47811;BME280;33575;52.600;7.318;2023-05-12T08:54:11;101690.36;;;16.74;94.74
47811;BME280;33575;52.600;7.318;2023-05-12T08:56:44;101694.70;;;16.82;94.08
47811;BME280;33575;52.600;7.318;2023-05-12T08:59:12;101701.67;;;16.84;94.73
47811;BME280;33575;52.600;7.318;2023-05-12T09:01:43;101708.17;;;16.68;94.10
47811;BME280;33575;52.600;7.318;2023-05-12T09:04:13;101704.75;;;16.74;93.01
47811;BME280;33575;52.600;7.318;2023-05-12T09:06:43;101703.80;;;16.67;93.93
47811;BME280;33575;52.600;7.318;2023-05-12T09:09:15;101703.45;;;16.76;94.19
47811;BME280;33575;52.600;7.318;2023-05-12T09:11:44;101706.22;;;16.69;94.60
47811;BME280;33575;52.600;7.318;2023-05-12T09:14:17;101707.12;;;16.89;94.75
47811;BME280;33575;52.600;7.318;2023-05-12T09:16:46;101708.88;;;16.99;92.81
47811;BME280;33575;52.600;7.318;2023-05-12T09:19:18;101715.16;;;17.07;91.74
47811;BME280;33575;52.600;7.318;2023-05-12T09:21:45;101712.54;;;17.08;90.97
47811;BME280;33575;52.600;7.318;2023-05-12T09:24:15;101717.85;;;17.19;90.21
47811;BME280;33575;52.600;7.318;2023-05-12T09:26:47;101716.65;;;17.33;92.10
47811;BME280;33575;52.600;7.318;2023-05-12T09:29:21;101714.72;;;17.50;91.75
47811;BME280;33575;52.600;7.318;2023-05-12T09:31:51;101715.07;;;17.65;91.23
47811;BME280;33575;52.600;7.318;2023-05-12T09:34:17;101709.23;;;17.74;90.72
47811;BME280;33575;52.600;7.318;2023-05-12T09:36:56;101712.65;;;17.86;89.28
47811;BME280;33575;52.600;7.318;2023-05-12T09:39:17;101710.83;;;17.96;89.92
47811;BME280;33575;52.600;7.318;2023-05-12T09:41:48;101711.77;;;18.06;89.61
47811;BME280;33575;52.600;7.318;2023-05-12T09:44:18;101715.85;;;18.16;87.52
47811;BME280;33575;52.600;7.318;2023-05-12T09:46:48;101718.07;;;18.25;87.79
47811;BME280;33575;52.600;7.318;2023-05-12T09:49:19;101713.55;;;18.29;86.51
47811;BME280;33575;52.600;7.318;2023-05-12T09:51:51;101711.16;;;18.38;86.85
47811;BME280;33575;52.600;7.318;2023-05-12T09:54:24;101710.60;;;18.51;88.55
47811;BME280;33575;52.600;7.318;2023-05-12T09:56:52;101709.67;;;18.67;86.82
47811;BME280;33575;52.600;7.318;2023-05-12T09:59:21;101709.35;;;18.82;88.47
47811;BME280;33575;52.600;7.318;2023-05-12T10:01:52;101704.70;;;19.03;89.04
47811;BME280;33575;52.600;7.318;2023-05-12T10:04:22;101703.51;;;19.06;83.71
47811;BME280;33575;52.600;7.318;2023-05-12T10:06:53;101709.40;;;19.16;81.80
47811;BME280;33575;52.600;7.318;2023-05-12T10:09:26;101708.42;;;19.18;79.98
47811;BME280;33575;52.600;7.318;2023-05-12T10:11:55;101706.66;;;19.23;79.97
47811;BME280;33575;52.600;7.318;2023-05-12T10:14:24;101706.77;;;19.29;83.99
47811;BME280;33575;52.600;7.318;2023-05-12T10:16:54;101706.30;;;19.38;81.44
47811;BME280;33575;52.600;7.318;2023-05-12T10:19:25;101705.80;;;19.50;82.42
47811;BME280;33575;52.600;7.318;2023-05-12T10:21:55;101706.35;;;19.60;80.88
47811;BME280;33575;52.600;7.318;2023-05-12T10:24:26;101704.25;;;19.63;79.99
47811;BME280;33575;52.600;7.318;2023-05-12T10:26:56;101700.09;;;19.77;80.13
47811;BME280;33575;52.600;7.318;2023-05-12T10:29:26;101698.54;;;19.90;79.40
47811;BME280;33575;52.600;7.318;2023-05-12T10:31:57;101699.15;;;19.93;76.26
47811;BME280;33575;52.600;7.318;2023-05-12T10:34:29;101703.06;;;19.95;78.07
47811;BME280;33575;52.600;7.318;2023-05-12T10:36:57;101699.63;;;19.91;76.48
47811;BME280;33575;52.600;7.318;2023-05-12T10:39:28;101701.32;;;20.02;79.88
47811;BME280;33575;52.600;7.318;2023-05-12T10:42:04;101697.98;;;20.09;76.10
47811;BME280;33575;52.600;7.318;2023-05-12T10:44:28;101698.06;;;20.01;75.84
47811;BME280;33575;52.600;7.318;2023-05-12T10:46:59;101695.43;;;20.06;76.08
47811;BME280;33575;52.600;7.318;2023-05-12T10:49:33;101696.30;;;20.17;75.68
47811;BME280;33575;52.600;7.318;2023-05-12T10:52:00;101692.42;;;20.38;79.60
47811;BME280;33575;52.600;7.318;2023-05-12T10:54:36;101688.93;;;20.67;78.32
47811;BME280;33575;52.600;7.318;2023-05-12T10:57:01;101689.35;;;20.92;74.55
47811;BME280;33575;52.600;7.318;2023-05-12T10:59:32;101691.60;;;21.09;76.10
47811;BME280;33575;52.600;7.318;2023-05-12T11:02:05;101693.01;;;21.35;77.89
47811;BME280;33575;52.600;7.318;2023-05-12T11:04:38;101690.37;;;21.45;73.98
47811;BME280;33575;52.600;7.318;2023-05-12T11:07:04;101691.55;;;21.36;72.73
47811;BME280;33575;52.600;7.318;2023-05-12T11:09:34;101687.04;;;21.39;67.72
47811;BME280;33575;52.600;7.318;2023-05-12T11:12:05;101681.93;;;21.61;74.57
47811;BME280;33575;52.600;7.318;2023-05-12T11:14:34;101681.87;;;21.85;74.18
47811;BME280;33575;52.600;7.318;2023-05-12T11:17:04;101679.67;;;22.02;73.48
47811;BME280;33575;52.600;7.318;2023-05-12T11:19:35;101678.08;;;22.10;71.29
47811;BME280;33575;52.600;7.318;2023-05-12T11:22:05;101677.48;;;22.37;76.32
47811;BME280;33575;52.600;7.318;2023-05-12T11:24:35;101679.01;;;22.48;68.77
47811;BME280;33575;52.600;7.318;2023-05-12T11:27:10;101678.98;;;22.60;70.73
47811;BME280;33575;52.600;7.318;2023-05-12T11:29:36;101682.44;;;22.77;68.82
47811;BME280;33575;52.600;7.318;2023-05-12T11:32:08;101678.90;;;22.90;70.34
47811;BME280;33575;52.600;7.318;2023-05-12T11:34:37;101675.69;;;23.08;68.67
47811;BME280;33575;52.600;7.318;2023-05-12T11:37:07;101675.59;;;23.18;67.36
47811;BME280;33575;52.600;7.318;2023-05-12T11:39:37;101678.74;;;23.13;64.43
47811;BME280;33575;52.600;7.318;2023-05-12T11:42:12;101685.51;;;23.14;67.76
47811;BME280;33575;52.600;7.318;2023-05-12T11:44:45;101680.10;;;23.21;64.17
47811;BME280;33575;52.600;7.318;2023-05-12T11:47:11;101677.93;;;23.17;65.31
47811;BME280;33575;52.600;7.318;2023-05-12T11:49:44;101677.49;;;23.17;66.68
47811;BME280;33575;52.600;7.318;2023-05-12T11:52:08;101683.70;;;23.17;64.97
47811;BME280;33575;52.600;7.318;2023-05-12T11:54:46;101684.08;;;23.21;66.91
47811;BME280;33575;52.600;7.318;2023-05-12T11:57:09;101688.83;;;23.26;65.95
47811;BME280;33575;52.600;7.318;2023-05-12T11:59:40;101686.20;;;23.30;65.89
47811;BME280;33575;52.600;7.318;2023-05-12T12:02:18;101687.40;;;23.37;66.13
47811;BME280;33575;52.600;7.318;2023-05-12T12:04:41;101688.52;;;23.36;66.96
47811;BME280;33575;52.600;7.318;2023-05-12T12:07:10;101681.88;;;23.37;64.81
47811;BME280;33575;52.600;7.318;2023-05-12T12:09:40;101683.21;;;23.33;67.18
47811;BME280;33575;52.600;7.318;2023-05-12T12:12:11;101689.92;;;23.23;64.83
47811;BME280;33575;52.600;7.318;2023-05-12T12:14:41;101688.22;;;23.17;62.44
47811;BME280;33575;52.600;7.318;2023-05-12T12:17:11;101689.75;;;23.09;63.70
47811;BME280;33575;52.600;7.318;2023-05-12T12:19:42;101690.90;;;23.08;64.44
47811;BME280;33575;52.600;7.318;2023-05-12T12:22:12;101688.12;;;23.12;64.92
47811;BME280;33575;52.600;7.318;2023-05-12T12:24:42;101689.34;;;23.12;64.64
47811;BME280;33575;52.600;7.318;2023-05-12T12:27:12;101689.21;;;23.01;62.32
47811;BME280;33575;52.600;7.318;2023-05-12T12:29:43;101687.71;;;22.89;62.62
47811;BME280;33575;52.600;7.318;2023-05-12T12:32:13;101688.33;;;22.88;61.68
47811;BME280;33575;52.600;7.318;2023-05-12T12:34:43;101684.25;;;22.93;59.84
47811;BME280;33575;52.600;7.318;2023-05-12T12:37:13;101683.58;;;22.86;62.16
47811;BME280;33575;52.600;7.318;2023-05-12T12:39:43;101683.37;;;23.01;62.12
47811;BME280;33575;52.600;7.318;2023-05-12T12:42:13;101682.66;;;23.16;61.95
47811;BME280;33575;52.600;7.318;2023-05-12T12:44:44;101678.83;;;23.23;61.42
47811;BME280;33575;52.600;7.318;2023-05-12T12:47:14;101683.05;;;23.25;61.63
47811;BME280;33575;52.600;7.318;2023-05-12T12:49:44;101687.82;;;23.04;59.41
47811;BME280;33575;52.600;7.318;2023-05-12T12:52:15;101685.03;;;22.92;56.00
47811;BME280;33575;52.600;7.318;2023-05-12T12:54:45;101687.60;;;22.82;55.73
47811;BME280;33575;52.600;7.318;2023-05-12T12:57:15;101688.58;;;22.87;56.01
47811;BME280;33575;52.600;7.318;2023-05-12T12:59:46;101685.25;;;22.91;53.76
47811;BME280;33575;52.600;7.318;2023-05-12T13:02:16;101688.33;;;22.97;55.46